sensor_id;sensor_type;location;lat;lon;timestamp;pressure;altitude;pressure_sealevel;temperature;humidity
25664;BME280;13522;50.018;20.014;2023-01-25T00:02:35;100851.81;;;1.15;100.00
25664;BME280;13522;50.018;20.014;2023-01-25T00:05:47;100845.62;;;1.19;100.00
25664;BME280;13522;50.018;20.014;2023-01-25T00:09:01;100837.86;;;1.14;100.00
25664;BME280;13522;50.018;20.014;2023-01-25T00:12:13;100836.99;;;1.14;100.00
25664;BME280;13522;50.018;20.014;2023-01-25T00:15:25;100836.16;;;1.12;100.00
25664;BME280;13522;50.018;20.014;2023-01-25T00:18:38;100829.93;;;1.17;100.00
25664;BME280;13522;50.018;20.014;2023-01-25T00:21:50;100819.64;;;1.10;100.00
25664;BME280;13522;50.018;20.014;2023-01-25T00:25:02;100829.83;;;1.22;100.00
25664;BME280;13522;50.018;20.014;2023-01-25T00:28:15;100833.36;;;1.21;100.00
25664;BME280;13522;50.018;20.014;2023-01-25T00:31:35;100845.53;;;1.22;100.00
25664;BME280;13522;50.018;20.014;2023-01-25T00:34:53;100824.59;;;1.22;100.00
25664;BME280;13522;50.018;20.014;2023-01-25T00:38:12;100824.51;;;1.26;100.00
25664;BME280;13522;50.018;20.014;2023-01-25T00:41:25;100826.20;;;1.29;100.00
25664;BME280;13522;50.018;20.014;2023-01-25T00:44:38;100836.59;;;1.32;100.00
25664;BME280;13522;50.018;20.014;2023-01-25T00:47:50;100832.27;;;1.29;100.00
25664;BME280;13522;50.018;20.014;2023-01-25T00:51:05;100818.41;;;1.26;100.00
25664;BME280;13522;50.018;20.014;2023-01-25T00:54:29;100819.31;;;1.25;100.00
25664;BME280;13522;50.018;20.014;2023-01-25T00:57:41;100809.59;;;1.30;100.00
25664;BME280;13522;50.018;20.014;2023-01-25T01:00:54;100813.91;;;1.31;100.00
25664;BME280;13522;50.018;20.014;2023-01-25T01:04:08;100818.36;;;1.27;100.00
25664;BME280;13522;50.018;20.014;2023-01-25T01:07:20;100813.07;;;1.30;100.00
25664;BME280;13522;50.018;20.014;2023-01-25T01:10:32;100801.69;;;1.31;100.00
25664;BME280;13522;50.018;20.014;2023-01-25T01:13:44;100796.41;;;1.33;100.00
25664;BME280;13522;50.018;20.014;2023-01-25T01:16:56;100792.83;;;1.37;100.00
25664;BME280;13522;50.018;20.014;2023-01-25T01:20:10;100796.99;;;1.45;100.00
25664;BME280;13522;50.018;20.014;2023-01-25T01:23:23;100789.03;;;1.50;100.00
25664;BME280;13522;50.018;20.014;2023-01-25T01:26:35;100786.38;;;1.51;100.00
25664;BME280;13522;50.018;20.014;2023-01-25T01:29:47;100770.66;;;1.51;100.00
25664;BME280;13522;50.018;20.014;2023-01-25T01:32:59;100760.19;;;1.51;100.00
25664;BME280;13522;50.018;20.014;2023-01-25T01:36:15;100754.38;;;1.39;100.00
25664;BME280;13522;50.018;20.014;2023-01-25T01:39:28;100744.06;;;1.33;100.00
25664;BME280;13522;50.018;20.014;2023-01-25T01:42:57;100747.44;;;1.38;100.00
25664;BME280;13522;50.018;20.014;2023-01-25T01:46:15;100751.95;;;1.31;100.00
25664;BME280;13522;50.018;20.014;2023-01-25T01:49:33;100751.03;;;1.34;100.00
25664;BME280;13522;50.018;20.014;2023-01-25T01:52:48;100749.23;;;1.36;100.00
25664;BME280;13522;50.018;20.014;2023-01-25T01:56:03;100743.08;;;1.38;100.00
25664;BME280;13522;50.018;20.014;2023-01-25T01:59:16;100737.80;;;1.40;100.00
25664;BME280;13522;50.018;20.014;2023-01-25T02:02:28;100735.13;;;1.41;100.00
25664;BME280;13522;50.018;20.014;2023-01-25T02:05:44;100722.00;;;1.43;100.00
25664;BME280;13522;50.018;20.014;2023-01-25T02:08:59;100715.78;;;1.47;100.00
25664;BME280;13522;50.018;20.014;2023-01-25T02:12:13;100713.16;;;1.48;100.00
25664;BME280;13522;50.018;20.014;2023-01-25T02:15:32;100713.11;;;1.50;100.00
25664;BME280;13522;50.018;20.014;2023-01-25T02:18:48;100712.29;;;1.48;100.00
25664;BME280;13522;50.018;20.014;2023-01-25T02:22:01;100713.98;;;1.49;100.00
25664;BME280;13522;50.018;20.014;2023-01-25T02:25:15;100722.00;;;1.43;100.00
25664;BME280;13522;50.018;20.014;2023-01-25T02:28:31;100716.91;;;1.37;100.00
25664;BME280;13522;50.018;20.014;2023-01-25T02:31:44;100724.14;;;1.27;100.00
25664;BME280;13522;50.018;20.014;2023-01-25T02:34:58;100730.97;;;1.33;100.00
25664;BME280;13522;50.018;20.014;2023-01-25T02:38:13;100724.08;;;1.30;100.00
25664;BME280;13522;50.018;20.014;2023-01-25T02:41:32;100722.19;;;1.35;100.00
25664;BME280;13522;50.018;20.014;2023-01-25T02:44:46;100718.07;;;1.27;100.00
25664;BME280;13522;50.018;20.014;2023-01-25T02:48:01;100717.94;;;1.31;100.00
25664;BME280;13522;50.018;20.014;2023-01-25T02:51:14;100721.67;;;1.21;100.00
25664;BME280;13522;50.018;20.014;2023-01-25T02:54:26;100721.52;;;1.27;100.00
25664;BME280;13522;50.018;20.014;2023-01-25T02:57:39;100719.77;;;1.28;100.00
25664;BME280;13522;50.018;20.014;2023-01-25T03:00:53;100711.97;;;1.26;100.00
25664;BME280;13522;50.018;20.014;2023-01-25T03:04:07;100721.51;;;1.29;100.00
25664;BME280;13522;50.018;20.014;2023-01-25T03:07:20;100716.27;;;1.29;100.00
25664;BME280;13522;50.018;20.014;2023-01-25T03:10:33;100722.15;;;1.37;100.00
25664;BME280;13522;50.018;20.014;2023-01-25T03:13:45;100707.59;;;1.27;100.00
25664;BME280;13522;50.018;20.014;2023-01-25T03:16:57;100713.04;;;1.18;100.00
25664;BME280;13522;50.018;20.014;2023-01-25T03:20:12;100720.06;;;1.16;100.00
25664;BME280;13522;50.018;20.014;2023-01-25T03:23:24;100716.38;;;1.24;100.00
25664;BME280;13522;50.018;20.014;2023-01-25T03:26:37;100708.44;;;1.27;100.00
25664;BME280;13522;50.018;20.014;2023-01-25T03:30:02;100719.77;;;1.28;100.00
25664;BME280;13522;50.018;20.014;2023-01-25T03:33:16;100711.24;;;1.20;100.00
25664;BME280;13522;50.018;20.014;2023-01-25T03:36:29;100711.39;;;1.14;100.00
25664;BME280;13522;50.018;20.014;2023-01-25T03:39:41;100710.61;;;1.10;100.00
25664;BME280;13522;50.018;20.014;2023-01-25T03:42:54;100706.92;;;1.19;100.00
25664;BME280;13522;50.018;20.014;2023-01-25T03:46:07;100699.91;;;1.19;100.00
25664;BME280;13522;50.018;20.014;2023-01-25T03:49:20;100697.44;;;1.13;100.00
25664;BME280;13522;50.018;20.014;2023-01-25T03:52:33;100697.43;;;1.15;100.00
25664;BME280;13522;50.018;20.014;2023-01-25T03:55:47;100689.44;;;1.19;100.00
25664;BME280;13522;50.018;20.014;2023-01-25T03:59:02;100691.47;;;1.08;100.00
25664;BME280;13522;50.018;20.014;2023-01-25T04:02:14;100700.20;;;1.07;100.00
25664;BME280;13522;50.018;20.014;2023-01-25T04:05:27;100694.13;;;1.07;100.00
25664;BME280;13522;50.018;20.014;2023-01-25T04:08:40;100696.70;;;1.08;100.00
25664;BME280;13522;50.018;20.014;2023-01-25T04:11:52;100687.13;;;1.07;100.00
25664;BME280;13522;50.018;20.014;2023-01-25T04:15:06;100688.81;;;1.10;100.00
25664;BME280;13522;50.018;20.014;2023-01-25T04:18:19;100680.08;;;1.11;100.00
25664;BME280;13522;50.018;20.014;2023-01-25T04:21:33;100674.17;;;1.03;100.00
25664;BME280;13522;50.018;20.014;2023-01-25T04:24:45;100672.44;;;1.02;100.00
25664;BME280;13522;50.018;20.014;2023-01-25T04:27:58;100676.84;;;1.00;100.00
25664;BME280;13522;50.018;20.014;2023-01-25T04:31:10;100672.44;;;1.02;100.00
25664;BME280;13522;50.018;20.014;2023-01-25T04:34:23;100671.56;;;1.03;100.00
25664;BME280;13522;50.018;20.014;2023-01-25T04:37:35;100664.73;;;0.96;100.00
25664;BME280;13522;50.018;20.014;2023-01-25T04:40:47;100660.47;;;0.93;100.00
25664;BME280;13522;50.018;20.014;2023-01-25T04:44:00;100658.77;;;0.91;100.00
25664;BME280;13522;50.018;20.014;2023-01-25T04:47:14;100662.36;;;0.86;100.00
25664;BME280;13522;50.018;20.014;2023-01-25T04:50:26;100658.97;;;0.81;100.00
25664;BME280;13522;50.018;20.014;2023-01-25T04:53:40;100657.27;;;0.80;100.00
25664;BME280;13522;50.018;20.014;2023-01-25T04:56:52;100655.33;;;0.88;100.00
25664;BME280;13522;50.018;20.014;2023-01-25T05:00:09;100654.56;;;0.83;100.00
25664;BME280;13522;50.018;20.014;2023-01-25T05:03:23;100659.80;;;0.83;100.00
25664;BME280;13522;50.018;20.014;2023-01-25T05:06:36;100656.21;;;0.87;100.00
25664;BME280;13522;50.018;20.014;2023-01-25T05:09:50;100648.31;;;0.91;100.00
25664;BME280;13522;50.018;20.014;2023-01-25T05:13:02;100653.69;;;0.84;100.00
25664;BME280;13522;50.018;20.014;2023-01-25T05:16:14;100653.59;;;0.87;100.00
25664;BME280;13522;50.018;20.014;2023-01-25T05:19:27;100649.33;;;0.83;100.00
25664;BME280;13522;50.018;20.014;2023-01-25T05:22:41;100644.05;;;0.86;100.00
25664;BME280;13522;50.018;20.014;2023-01-25T05:25:53;100644.92;;;0.85;100.00
25664;BME280;13522;50.018;20.014;2023-01-25T05:29:20;100642.40;;;0.82;100.00
25664;BME280;13522;50.018;20.014;2023-01-25T05:32:34;100651.13;;;0.81;100.00
25664;BME280;13522;50.018;20.014;2023-01-25T05:35:47;100642.25;;;0.88;100.00
25664;BME280;13522;50.018;20.014;2023-01-25T05:38:59;100644.67;;;0.96;100.00
25664;BME280;13522;50.018;20.014;2023-01-25T05:42:13;100640.22;;;1.00;100.00
25664;BME280;13522;50.018;20.014;2023-01-25T05:45:27;100641.81;;;1.07;100.00
25664;BME280;13522;50.018;20.014;2023-01-25T05:48:40;100627.70;;;1.12;100.00
25664;BME280;13522;50.018;20.014;2023-01-25T05:51:53;100628.68;;;1.08;100.00
25664;BME280;13522;50.018;20.014;2023-01-25T05:55:07;100629.61;;;1.06;100.00
25664;BME280;13522;50.018;20.014;2023-01-25T05:58:20;100633.09;;;1.06;100.00
25664;BME280;13522;50.018;20.014;2023-01-25T06:01:33;100633.05;;;1.08;100.00
25664;BME280;13522;50.018;20.014;2023-01-25T06:04:46;100638.13;;;1.14;100.00
25664;BME280;13522;50.018;20.014;2023-01-25T06:07:58;100643.20;;;1.20;100.00
25664;BME280;13522;50.018;20.014;2023-01-25T06:11:14;100639.56;;;1.25;100.00
25664;BME280;13522;50.018;20.014;2023-01-25T06:14:28;100642.17;;;1.27;100.00
25664;BME280;13522;50.018;20.014;2023-01-25T06:17:41;100636.84;;;1.30;100.00
25664;BME280;13522;50.018;20.014;2023-01-25T06:21:12;100637.66;;;1.32;100.00
25664;BME280;13522;50.018;20.014;2023-01-25T06:24:25;100630.78;;;1.28;100.00
25664;BME280;13522;50.018;20.014;2023-01-25T06:27:37;100634.13;;;1.33;100.00
25664;BME280;13522;50.018;20.014;2023-01-25T06:30:49;100631.56;;;1.31;100.00
25664;BME280;13522;50.018;20.014;2023-01-25T06:34:02;100628.02;;;1.34;100.00
25664;BME280;13522;50.018;20.014;2023-01-25T06:37:15;100622.05;;;1.29;100.00
25664;BME280;13522;50.018;20.014;2023-01-25T06:40:28;100627.28;;;1.29;100.00
25664;BME280;13522;50.018;20.014;2023-01-25T06:43:40;100613.28;;;1.30;100.00
25664;BME280;13522;50.018;20.014;2023-01-25T06:46:53;100621.23;;;1.27;100.00
25664;BME280;13522;50.018;20.014;2023-01-25T06:50:07;100616.72;;;1.32;100.00
25664;BME280;13522;50.018;20.014;2023-01-25T06:53:20;100615.81;;;1.33;100.00
25664;BME280;13522;50.018;20.014;2023-01-25T06:56:33;100609.69;;;1.34;100.00
25664;BME280;13522;50.018;20.014;2023-01-25T06:59:45;100599.28;;;1.31;100.00
25664;BME280;13522;50.018;20.014;2023-01-25T07:02:57;100609.75;;;1.31;100.00
25664;BME280;13522;50.018;20.014;2023-01-25T07:06:10;100601.90;;;1.31;100.00
25664;BME280;13522;50.018;20.014;2023-01-25T07:09:22;100601.02;;;1.32;100.00
25664;BME280;13522;50.018;20.014;2023-01-25T07:12:34;100600.04;;;1.36;100.00
25664;BME280;13522;50.018;20.014;2023-01-25T07:15:52;100606.09;;;1.38;100.00
25664;BME280;13522;50.018;20.014;2023-01-25T07:19:06;100605.17;;;1.39;100.00
25664;BME280;13522;50.018;20.014;2023-01-25T07:22:20;100599.13;;;1.37;100.00
25664;BME280;13522;50.018;20.014;2023-01-25T07:25:32;100589.47;;;1.39;100.00
25664;BME280;13522;50.018;20.014;2023-01-25T07:28:45;100595.52;;;1.41;100.00
25664;BME280;13522;50.018;20.014;2023-01-25T07:31:58;100600.15;;;1.31;100.00
25664;BME280;13522;50.018;20.014;2023-01-25T07:35:11;100600.36;;;1.24;100.00
25664;BME280;13522;50.018;20.014;2023-01-25T07:38:24;100597.53;;;1.31;100.00
25664;BME280;13522;50.018;20.014;2023-01-25T07:41:36;100586.95;;;1.36;100.00
25664;BME280;13522;50.018;20.014;2023-01-25T07:44:51;100592.95;;;1.39;100.00
25664;BME280;13522;50.018;20.014;2023-01-25T07:48:08;100574.03;;;1.30;100.00
25664;BME280;13522;50.018;20.014;2023-01-25T07:51:19;100573.70;;;1.42;100.00
25664;BME280;13522;50.018;20.014;2023-01-25T07:54:33;100572.95;;;1.37;100.00
25664;BME280;13522;50.018;20.014;2023-01-25T07:57:45;100567.64;;;1.40;100.00
25664;BME280;13522;50.018;20.014;2023-01-25T08:00:58;100577.30;;;1.38;100.00
25664;BME280;13522;50.018;20.014;2023-01-25T08:04:19;100567.81;;;1.34;100.00
25664;BME280;13522;50.018;20.014;2023-01-25T08:07:31;100562.36;;;1.41;100.00
25664;BME280;13522;50.018;20.014;2023-01-25T08:10:43;100564.98;;;1.41;100.00
25664;BME280;13522;50.018;20.014;2023-01-25T08:13:56;100564.21;;;1.38;100.00
25664;BME280;13522;50.018;20.014;2023-01-25T08:17:08;100564.05;;;1.44;100.00
25664;BME280;13522;50.018;20.014;2023-01-25T08:20:20;100557.89;;;1.45;100.00
25664;BME280;13522;50.018;20.014;2023-01-25T08:23:32;100551.50;;;1.55;100.00
25664;BME280;13522;50.018;20.014;2023-01-25T08:26:44;100549.52;;;1.63;100.00
25664;BME280;13522;50.018;20.014;2023-01-25T08:29:56;100547.65;;;1.68;100.00
25664;BME280;13522;50.018;20.014;2023-01-25T08:33:09;100542.76;;;1.56;100.00
25664;BME280;13522;50.018;20.014;2023-01-25T08:36:22;100536.30;;;1.67;100.00
25664;BME280;13522;50.018;20.014;2023-01-25T08:39:34;100543.17;;;1.71;100.00
25664;BME280;13522;50.018;20.014;2023-01-25T08:42:46;100542.06;;;1.80;100.00
25664;BME280;13522;50.018;20.014;2023-01-25T08:45:59;100544.11;;;1.69;100.00
25664;BME280;13522;50.018;20.014;2023-01-25T08:49:11;100531.14;;;1.64;100.00
25664;BME280;13522;50.018;20.014;2023-01-25T08:52:23;100530.30;;;1.64;100.00
25664;BME280;13522;50.018;20.014;2023-01-25T08:55:37;100535.55;;;1.64;100.00
25664;BME280;13522;50.018;20.014;2023-01-25T08:58:50;100543.06;;;1.74;100.00
25664;BME280;13522;50.018;20.014;2023-01-25T09:02:02;100541.24;;;1.78;100.00
25664;BME280;13522;50.018;20.014;2023-01-25T09:05:15;100534.33;;;1.75;100.00
25664;BME280;13522;50.018;20.014;2023-01-25T09:08:26;100533.96;;;1.88;100.00
25664;BME280;13522;50.018;20.014;2023-01-25T09:11:39;100532.91;;;1.93;100.00
25664;BME280;13522;50.018;20.014;2023-01-25T09:14:51;100528.38;;;1.98;100.00
25664;BME280;13522;50.018;20.014;2023-01-25T09:18:04;100523.77;;;2.06;100.00
25664;BME280;13522;50.018;20.014;2023-01-25T09:21:17;100515.77;;;2.11;100.00
25664;BME280;13522;50.018;20.014;2023-01-25T09:24:30;100514.02;;;2.11;100.00
25664;BME280;13522;50.018;20.014;2023-01-25T09:27:42;100512.63;;;2.27;100.00
25664;BME280;13522;50.018;20.014;2023-01-25T09:30:58;100505.07;;;2.44;100.00
25664;BME280;13522;50.018;20.014;2023-01-25T09:34:21;100501.56;;;2.45;100.00
25664;BME280;13522;50.018;20.014;2023-01-25T09:37:33;100494.38;;;2.50;100.00
25664;BME280;13522;50.018;20.014;2023-01-25T09:40:50;100493.83;;;2.67;100.00
25664;BME280;13522;50.018;20.014;2023-01-25T09:44:19;100484.69;;;2.79;100.00
25664;BME280;13522;50.018;20.014;2023-01-25T09:47:44;100474.40;;;2.73;100.00
25664;BME280;13522;50.018;20.014;2023-01-25T09:51:15;100473.08;;;2.59;100.00
25664;BME280;13522;50.018;20.014;2023-01-25T09:54:32;100466.83;;;2.63;100.00
25664;BME280;13522;50.018;20.014;2023-01-25T09:57:48;100462.83;;;2.53;100.00
25664;BME280;13522;50.018;20.014;2023-01-25T10:01:14;100458.33;;;2.57;100.00
25664;BME280;13522;50.018;20.014;2023-01-25T10:04:38;100461.81;;;2.57;100.00
25664;BME280;13522;50.018;20.014;2023-01-25T10:07:56;100447.84;;;2.57;100.00
25664;BME280;13522;50.018;20.014;2023-01-25T10:11:15;100446.85;;;2.59;100.00
25664;BME280;13522;50.018;20.014;2023-01-25T10:14:30;100443.55;;;2.54;100.00
25664;BME280;13522;50.018;20.014;2023-01-25T10:17:43;100427.81;;;2.54;100.00
25664;BME280;13522;50.018;20.014;2023-01-25T10:20:57;100423.38;;;2.56;100.00
25664;BME280;13522;50.018;20.014;2023-01-25T10:24:33;100418.81;;;2.61;100.00
25664;BME280;13522;50.018;20.014;2023-01-25T10:27:55;100408.98;;;2.43;100.00
25664;BME280;13522;50.018;20.014;2023-01-25T10:31:21;100419.61;;;2.63;100.00
25664;BME280;13522;50.018;20.014;2023-01-25T10:34:41;100415.30;;;2.62;100.00
25664;BME280;13522;50.018;20.014;2023-01-25T10:38:00;100401.25;;;2.63;100.00
25664;BME280;13522;50.018;20.014;2023-01-25T10:41:17;100395.05;;;2.66;100.00
25664;BME280;13522;50.018;20.014;2023-01-25T10:44:34;100383.60;;;2.69;100.00
25664;BME280;13522;50.018;20.014;2023-01-25T10:47:49;100387.89;;;2.71;100.00
25664;BME280;13522;50.018;20.014;2023-01-25T10:51:06;100386.88;;;2.75;100.00
25664;BME280;13522;50.018;20.014;2023-01-25T10:54:18;100384.41;;;2.71;100.00
25664;BME280;13522;50.018;20.014;2023-01-25T10:57:36;100388.63;;;2.75;100.00
25664;BME280;13522;50.018;20.014;2023-01-25T11:00:51;100384.25;;;2.75;100.00
25664;BME280;13522;50.018;20.014;2023-01-25T11:04:03;100382.21;;;2.83;100.00
25664;BME280;13522;50.018;20.014;2023-01-25T11:07:28;100378.02;;;2.78;100.00
25664;BME280;13522;50.018;20.014;2023-01-25T11:10:42;100379.63;;;2.82;100.00
25664;BME280;13522;50.018;20.014;2023-01-25T11:13:56;100369.89;;;2.85;100.00
25664;BME280;13522;50.018;20.014;2023-01-25T11:17:21;100355.63;;;2.92;100.00
25664;BME280;13522;50.018;20.014;2023-01-25T11:20:35;100353.16;;;2.88;100.00
25664;BME280;13522;50.018;20.014;2023-01-25T11:24:14;100347.02;;;2.89;100.00
25664;BME280;13522;50.018;20.014;2023-01-25T11:27:28;100342.89;;;2.82;100.00
25664;BME280;13522;50.018;20.014;2023-01-25T11:30:40;100339.94;;;2.91;100.00
25664;BME280;13522;50.018;20.014;2023-01-25T11:33:53;100342.44;;;2.94;100.00
25664;BME280;13522;50.018;20.014;2023-01-25T11:37:25;100326.13;;;2.86;100.00
25664;BME280;13522;50.018;20.014;2023-01-25T11:40:58;100322.67;;;2.85;100.00
25664;BME280;13522;50.018;20.014;2023-01-25T11:44:29;100315.53;;;2.89;100.00
25664;BME280;13522;50.018;20.014;2023-01-25T11:47:56;100307.89;;;2.83;100.00
25664;BME280;13522;50.018;20.014;2023-01-25T11:51:16;100311.88;;;2.93;100.00
25664;BME280;13522;50.018;20.014;2023-01-25T11:54:43;100294.11;;;2.99;100.00
25664;BME280;13522;50.018;20.014;2023-01-25T11:58:15;100295.20;;;2.94;100.00
25664;BME280;13522;50.018;20.014;2023-01-25T12:01:50;100293.61;;;2.90;100.00
25664;BME280;13522;50.018;20.014;2023-01-25T12:05:22;100294.54;;;2.89;100.00
25664;BME280;13522;50.018;20.014;2023-01-25T12:12:33;100278.86;;;2.87;100.00
25664;BME280;13522;50.018;20.014;2023-01-25T12:16:07;100269.17;;;2.89;100.00
25664;BME280;13522;50.018;20.014;2023-01-25T12:19:41;100264.75;;;2.90;100.00
25664;BME280;13522;50.018;20.014;2023-01-25T12:23:09;100261.23;;;2.91;100.00
25664;BME280;13522;50.018;20.014;2023-01-25T12:26:29;100256.44;;;2.79;100.00
25664;BME280;13522;50.018;20.014;2023-01-25T12:29:48;100252.00;;;2.81;100.00
25664;BME280;13522;50.018;20.014;2023-01-25T12:33:08;100247.55;;;2.83;100.00
25664;BME280;13522;50.018;20.014;2023-01-25T12:36:26;100239.77;;;2.80;100.00
25664;BME280;13522;50.018;20.014;2023-01-25T12:39:45;100240.47;;;2.85;100.00
25664;BME280;13522;50.018;20.014;2023-01-25T12:43:00;100230.84;;;2.85;100.00
25664;BME280;13522;50.018;20.014;2023-01-25T12:46:16;100226.56;;;2.83;100.00
25664;BME280;13522;50.018;20.014;2023-01-25T12:49:36;100223.80;;;2.86;100.00
25664;BME280;13522;50.018;20.014;2023-01-25T12:52:52;100221.48;;;2.78;100.00
25664;BME280;13522;50.018;20.014;2023-01-25T12:56:08;100220.62;;;2.78;100.00
25664;BME280;13522;50.018;20.014;2023-01-25T12:59:29;100218.13;;;2.75;100.00
25664;BME280;13522;50.018;20.014;2023-01-25T13:03:01;100216.30;;;2.77;100.00
25664;BME280;13522;50.018;20.014;2023-01-25T13:06:23;100210.88;;;2.81;100.00
25664;BME280;13522;50.018;20.014;2023-01-25T13:09:41;100207.70;;;2.73;100.00
25664;BME280;13522;50.018;20.014;2023-01-25T13:12:59;100208.17;;;2.61;100.00
25664;BME280;13522;50.018;20.014;2023-01-25T13:16:41;100207.17;;;2.63;100.00
25664;BME280;13522;50.018;20.014;2023-01-25T13:19:56;100196.75;;;2.62;100.00
25664;BME280;13522;50.018;20.014;2023-01-25T13:23:28;100203.66;;;2.64;100.00
25664;BME280;13522;50.018;20.014;2023-01-25T13:26:59;100192.92;;;2.71;100.00
25664;BME280;13522;50.018;20.014;2023-01-25T13:30:32;100193.03;;;2.68;100.00
25664;BME280;13522;50.018;20.014;2023-01-25T13:33:45;100184.43;;;2.64;100.00
25664;BME280;13522;50.018;20.014;2023-01-25T13:36:57;100187.12;;;2.62;100.00
25664;BME280;13522;50.018;20.014;2023-01-25T13:40:26;100189.61;;;2.65;100.00
25664;BME280;13522;50.018;20.014;2023-01-25T13:43:46;100180.70;;;2.70;100.00
25664;BME280;13522;50.018;20.014;2023-01-25T13:47:02;100176.56;;;2.64;100.00
25664;BME280;13522;50.018;20.014;2023-01-25T13:50:20;100173.21;;;2.60;100.00
25664;BME280;13522;50.018;20.014;2023-01-25T13:53:34;100169.80;;;2.58;100.00
25664;BME280;13522;50.018;20.014;2023-01-25T13:57:03;100166.38;;;2.56;100.00
25664;BME280;13522;50.018;20.014;2023-01-25T14:00:20;100170.19;;;2.48;100.00
25664;BME280;13522;50.018;20.014;2023-01-25T14:03:35;100165.71;;;2.51;100.00
25664;BME280;13522;50.018;20.014;2023-01-25T14:06:55;100157.22;;;2.45;100.00
25664;BME280;13522;50.018;20.014;2023-01-25T14:10:18;100163.66;;;2.36;100.00
25664;BME280;13522;50.018;20.014;2023-01-25T14:13:32;100158.57;;;2.32;100.00
25664;BME280;13522;50.018;20.014;2023-01-25T14:16:45;100151.50;;;2.34;100.00
25664;BME280;13522;50.018;20.014;2023-01-25T14:20:00;100147.19;;;2.33;100.00
25664;BME280;13522;50.018;20.014;2023-01-25T14:23:24;100139.56;;;2.27;100.00
25664;BME280;13522;50.018;20.014;2023-01-25T14:26:38;100128.94;;;2.30;100.00
25664;BME280;13522;50.018;20.014;2023-01-25T14:29:53;100134.38;;;2.25;100.00
25664;BME280;13522;50.018;20.014;2023-01-25T14:33:15;100124.80;;;2.24;100.00
25664;BME280;13522;50.018;20.014;2023-01-25T14:36:30;100129.20;;;2.24;100.00
25664;BME280;13522;50.018;20.014;2023-01-25T14:39:43;100128.44;;;2.20;100.00
25664;BME280;13522;50.018;20.014;2023-01-25T14:42:58;100126.98;;;2.13;100.00
25664;BME280;13522;50.018;20.014;2023-01-25T14:46:28;100128.67;;;2.14;100.00
25664;BME280;13522;50.018;20.014;2023-01-25T14:49:41;100123.33;;;2.17;100.00
25664;BME280;13522;50.018;20.014;2023-01-25T14:52:53;100124.36;;;2.13;100.00
25664;BME280;13522;50.018;20.014;2023-01-25T14:56:10;100121.80;;;2.12;100.00
25664;BME280;13522;50.018;20.014;2023-01-25T14:59:33;100129.76;;;2.09;100.00
25664;BME280;13522;50.018;20.014;2023-01-25T15:02:48;100123.79;;;2.05;100.00
25664;BME280;13522;50.018;20.014;2023-01-25T15:06:05;100115.13;;;2.03;100.00
25664;BME280;13522;50.018;20.014;2023-01-25T15:09:40;100118.55;;;2.05;100.00
25664;BME280;13522;50.018;20.014;2023-01-25T15:13:18;100113.24;;;2.07;100.00
25664;BME280;13522;50.018;20.014;2023-01-25T15:16:35;100113.31;;;2.05;100.00
25664;BME280;13522;50.018;20.014;2023-01-25T15:19:53;100110.47;;;1.88;100.00
25664;BME280;13522;50.018;20.014;2023-01-25T15:23:20;100103.63;;;1.84;100.00
25664;BME280;13522;50.018;20.014;2023-01-25T15:26:34;100099.35;;;1.82;100.00
25664;BME280;13522;50.018;20.014;2023-01-25T15:29:47;100095.64;;;1.87;100.00
25664;BME280;13522;50.018;20.014;2023-01-25T15:33:00;100094.75;;;1.88;100.00
25664;BME280;13522;50.018;20.014;2023-01-25T15:36:14;100083.13;;;1.95;100.00
25664;BME280;13522;50.018;20.014;2023-01-25T15:39:27;100093.83;;;1.89;100.00
25664;BME280;13522;50.018;20.014;2023-01-25T15:42:40;100078.78;;;1.94;100.00
25664;BME280;13522;50.018;20.014;2023-01-25T15:45:53;100078.02;;;1.92;100.00
25664;BME280;13522;50.018;20.014;2023-01-25T15:49:07;100089.25;;;1.94;100.00
25664;BME280;13522;50.018;20.014;2023-01-25T15:52:19;100082.19;;;1.96;100.00
25664;BME280;13522;50.018;20.014;2023-01-25T15:55:33;100080.63;;;1.92;100.00
25664;BME280;13522;50.018;20.014;2023-01-25T15:58:48;100073.80;;;1.88;100.00
25664;BME280;13522;50.018;20.014;2023-01-25T16:02:02;100065.81;;;1.91;100.00
25664;BME280;13522;50.018;20.014;2023-01-25T16:05:15;100070.16;;;1.92;100.00
25664;BME280;13522;50.018;20.014;2023-01-25T16:08:27;100064.91;;;1.92;100.00
25664;BME280;13522;50.018;20.014;2023-01-25T16:11:40;100068.43;;;1.91;100.00
25664;BME280;13522;50.018;20.014;2023-01-25T16:14:56;100063.42;;;1.85;100.00
25664;BME280;13522;50.018;20.014;2023-01-25T16:18:12;100055.72;;;1.81;100.00
25664;BME280;13522;50.018;20.014;2023-01-25T16:21:24;100054.13;;;1.76;100.00
25664;BME280;13522;50.018;20.014;2023-01-25T16:24:36;100054.98;;;1.77;100.00
25664;BME280;13522;50.018;20.014;2023-01-25T16:27:49;100046.34;;;1.75;100.00
25664;BME280;13522;50.018;20.014;2023-01-25T16:31:01;100039.41;;;1.74;100.00
25664;BME280;13522;50.018;20.014;2023-01-25T16:34:15;100028.94;;;1.74;100.00
25664;BME280;13522;50.018;20.014;2023-01-25T16:37:29;100027.34;;;1.70;100.00
25664;BME280;13522;50.018;20.014;2023-01-25T16:40:42;100030.98;;;1.66;100.00
25664;BME280;13522;50.018;20.014;2023-01-25T16:43:54;100032.00;;;1.62;100.00
25664;BME280;13522;50.018;20.014;2023-01-25T16:47:08;100023.34;;;1.60;100.00
25664;BME280;13522;50.018;20.014;2023-01-25T16:50:23;100018.21;;;1.57;100.00
25664;BME280;13522;50.018;20.014;2023-01-25T16:53:35;100012.65;;;1.66;100.00
25664;BME280;13522;50.018;20.014;2023-01-25T16:56:48;100014.34;;;1.67;100.00